createdAt,value
2018-11-06T00:02:05.711Z,29.82
2018-11-06T00:04:14.864Z,29.11
2018-11-06T00:06:24.279Z,29.03
2018-11-06T00:08:33.707Z,29.63
2018-11-06T00:10:43.713Z,30.02
2018-11-06T00:12:53.284Z,29.38
2018-11-06T00:15:04.445Z,29.01
2018-11-06T00:17:13.830Z,29.66
2018-11-06T00:19:23.281Z,29.09
2018-11-06T00:21:32.833Z,29.53
2018-11-06T00:23:42.706Z,30.02
2018-11-06T00:25:52.290Z,29.98
2018-11-06T00:28:01.719Z,29.66
2018-11-06T00:30:13.277Z,29.46
2018-11-06T00:32:22.288Z,30.03
2018-11-06T00:34:31.548Z,29.94
2018-11-06T00:36:41.283Z,29.08
2018-11-06T00:38:50.352Z,29.30
2018-11-06T00:40:59.769Z,29.33
2018-11-06T00:43:09.704Z,30.14
2018-11-06T00:45:19.716Z,29.15
2018-11-06T00:47:29.013Z,29.06
2018-11-06T00:49:38.713Z,29.80
2018-11-06T00:51:47.847Z,28.82
2018-11-06T00:53:57.396Z,29.82
2018-11-06T00:56:06.850Z,29.52
2018-11-06T00:58:17.276Z,30.26
2018-11-06T01:00:26.701Z,29.40
2018-11-06T01:02:36.536Z,29.86
2018-11-06T01:04:46.278Z,30.26
2018-11-06T01:06:55.701Z,30.66
2018-11-06T01:09:05.120Z,29.61
2018-11-06T01:11:15.276Z,29.53
2018-11-06T01:13:24.682Z,29.52
2018-11-06T01:15:34.282Z,29.13
2018-11-06T01:17:44.041Z,29.73
2018-11-06T01:19:53.283Z,28.86
2018-11-06T01:22:02.725Z,29.18
2018-11-06T01:24:12.537Z,29.51
2018-11-06T01:26:21.709Z,28.90
2018-11-06T01:28:31.281Z,30.06
2018-11-06T01:30:40.387Z,29.40
2018-11-06T01:32:49.707Z,29.22
2018-11-06T01:34:59.278Z,29.58
2018-11-06T01:37:08.716Z,29.25
2018-11-06T01:39:17.716Z,29.44
2018-11-06T01:41:27.278Z,30.23
2018-11-06T01:43:36.693Z,30.15
2018-11-06T01:45:46.296Z,29.46
2018-11-06T01:47:55.637Z,29.32
2018-11-06T01:50:05.524Z,29.39
2018-11-06T01:52:15.281Z,30.01
2018-11-06T01:54:24.712Z,29.54
2018-11-06T01:56:34.282Z,29.47
2018-11-06T01:58:45.029Z,29.16
2018-11-06T02:00:54.632Z,29.90
2018-11-06T02:03:04.708Z,29.93
2018-11-06T02:05:15.937Z,29.79
2018-11-06T02:07:24.824Z,29.22
2018-11-06T02:09:34.545Z,29.25
2018-11-06T02:11:43.756Z,29.84
2018-11-06T02:13:53.286Z,30.10
2018-11-06T02:16:02.676Z,29.15
2018-11-06T02:18:12.047Z,28.86
2018-11-06T02:20:21.583Z,29.06
2018-11-06T02:22:30.734Z,29.28
2018-11-06T02:24:40.284Z,29.36
2018-11-06T02:26:50.720Z,28.90
2018-11-06T02:29:00.290Z,29.05
2018-11-06T02:31:09.716Z,29.33
2018-11-06T02:33:19.282Z,29.27
2018-11-06T02:35:28.772Z,28.82
2018-11-06T02:37:38.715Z,28.61
2018-11-06T02:39:48.388Z,28.89
2018-11-06T02:41:58.411Z,28.81
2018-11-06T02:44:08.280Z,29.34
2018-11-06T02:46:18.416Z,29.00
2018-11-06T02:48:27.708Z,28.75
2018-11-06T02:50:36.738Z,29.63
2018-11-06T02:52:46.705Z,29.93
2018-11-06T02:54:55.768Z,29.74
2018-11-06T02:57:05.274Z,29.59
2018-11-06T02:59:15.351Z,29.38
2018-11-06T03:01:24.733Z,29.24
2018-11-06T03:03:38.353Z,29.72
2018-11-06T03:05:47.710Z,29.53
2018-11-06T03:07:57.832Z,29.05
2018-11-06T03:10:08.089Z,29.46
2018-11-06T03:12:17.708Z,29.49
2018-11-06T03:14:26.776Z,29.52
2018-11-06T03:16:35.746Z,29.03
2018-11-06T03:18:44.840Z,29.68
2018-11-06T03:20:54.268Z,29.08
2018-11-06T03:23:03.727Z,29.28
2018-11-06T03:25:13.703Z,29.57
2018-11-06T03:27:23.271Z,29.22
2018-11-06T03:29:32.766Z,29.16
2018-11-06T03:31:42.273Z,29.40
2018-11-06T03:33:51.674Z,29.65
2018-11-06T03:36:01.270Z,28.98
2018-11-06T03:38:10.399Z,28.72
2018-11-06T03:40:19.695Z,29.23
2018-11-06T03:42:29.020Z,29.43
2018-11-06T03:44:38.671Z,29.70
2018-11-06T03:46:47.743Z,28.87
2018-11-06T03:48:57.268Z,29.49
2018-11-06T03:51:06.704Z,29.28
2018-11-06T03:53:15.694Z,29.57
2018-11-06T03:55:25.274Z,29.71
2018-11-06T03:57:34.274Z,29.88
2018-11-06T03:59:44.274Z,29.29
2018-11-06T04:01:54.774Z,29.15
2018-11-06T04:04:05.023Z,29.46
2018-11-06T04:06:15.285Z,28.98
2018-11-06T04:08:24.749Z,28.81
2018-11-06T04:10:34.274Z,29.36
2018-11-06T04:12:44.706Z,29.20
2018-11-06T04:14:53.707Z,29.18
2018-11-06T04:17:03.277Z,29.25
2018-11-06T04:19:13.284Z,29.14
2018-11-06T04:21:53.751Z,29.22
2018-11-06T04:24:03.368Z,29.86
2018-11-06T04:26:13.282Z,29.35
2018-11-06T04:28:22.811Z,29.17
2018-11-06T04:30:32.280Z,28.98
2018-11-06T04:32:42.324Z,29.58
2018-11-06T04:34:52.282Z,29.64
2018-11-06T04:37:01.800Z,29.14
2018-11-06T04:39:13.694Z,28.86
2018-11-06T04:41:23.279Z,29.17
2018-11-06T04:43:32.715Z,29.01
2018-11-06T04:45:42.281Z,29.27
2018-11-06T04:47:51.717Z,28.66
2018-11-06T04:50:01.564Z,28.94
2018-11-06T04:52:11.790Z,28.97
2018-11-06T04:54:21.697Z,29.58
2018-11-06T04:56:32.281Z,29.43
2018-11-06T04:58:42.283Z,29.02
2018-11-06T05:00:52.284Z,29.20
2018-11-06T05:03:01.722Z,29.38
2018-11-06T05:05:12.274Z,28.98
2018-11-06T05:07:21.703Z,29.13
2018-11-06T05:09:31.822Z,28.95
2018-11-06T05:11:41.281Z,29.17
2018-11-06T05:13:51.350Z,29.57
2018-11-06T05:16:01.103Z,28.91
2018-11-06T05:18:10.725Z,29.48
2018-11-06T05:21:15.782Z,29.25
2018-11-06T05:23:25.294Z,29.00
2018-11-06T05:25:34.805Z,29.58
2018-11-06T05:27:44.290Z,29.35
2018-11-06T05:29:54.713Z,29.14
2018-11-06T05:32:04.286Z,29.47
2018-11-06T05:34:14.015Z,29.10
2018-11-06T05:36:23.693Z,29.26
2018-11-06T05:38:33.288Z,29.37
2018-11-06T05:42:20.290Z,28.50
2018-11-06T05:44:29.709Z,28.78
2018-11-06T05:46:39.281Z,28.96
2018-11-06T05:48:48.703Z,29.36
2018-11-06T05:50:58.716Z,29.10
2018-11-06T05:53:07.713Z,29.66
2018-11-06T05:55:17.767Z,29.13
2018-11-06T05:57:27.287Z,29.32
2018-11-06T05:59:37.288Z,29.48
2018-11-06T06:01:46.719Z,29.62
2018-11-06T06:03:56.281Z,29.66
2018-11-06T06:06:06.281Z,29.68
2018-11-06T06:08:16.723Z,29.15
2018-11-06T06:10:26.284Z,29.35
2018-11-06T06:12:36.322Z,29.07
2018-11-06T06:14:45.696Z,29.39
2018-11-06T06:16:56.286Z,29.43
2018-11-06T06:19:05.686Z,29.56
2018-11-06T06:21:15.345Z,29.57
2018-11-06T06:23:25.281Z,30.02
2018-11-06T06:25:35.283Z,29.63
2018-11-06T06:27:45.281Z,30.05
2018-11-06T06:29:54.698Z,30.16
2018-11-06T06:32:04.280Z,29.22
2018-11-06T06:34:14.280Z,29.69
2018-11-06T06:36:23.824Z,29.67
2018-11-06T06:38:33.720Z,29.71
2018-11-06T06:40:43.783Z,29.33
2018-11-06T06:42:53.752Z,29.17
2018-11-06T06:45:03.280Z,29.89
2018-11-06T06:47:13.387Z,29.57
2018-11-06T06:49:23.286Z,29.01
2018-11-06T06:51:33.285Z,29.36
2018-11-06T06:53:43.281Z,29.17
2018-11-06T06:55:52.709Z,29.39
2018-11-06T06:58:02.274Z,28.70
2018-11-06T07:00:15.647Z,29.18
2018-11-06T07:02:25.699Z,29.09
2018-11-06T07:04:35.278Z,29.78
2018-11-06T07:06:45.277Z,29.11
2018-11-06T07:08:55.279Z,29.73
2018-11-06T07:11:04.717Z,28.97
2018-11-06T07:13:14.708Z,29.32
2018-11-06T07:15:25.035Z,29.39
2018-11-06T07:17:34.716Z,28.95
2018-11-06T07:19:44.727Z,28.98
2018-11-06T07:21:53.736Z,28.98
2018-11-06T07:24:03.705Z,29.10
2018-11-06T07:26:13.403Z,29.64
2018-11-06T07:28:23.287Z,29.48
2018-11-06T07:30:33.284Z,29.47
2018-11-06T07:32:43.283Z,29.68
2018-11-06T07:34:53.327Z,29.28
2018-11-06T07:37:03.282Z,29.33
2018-11-06T07:39:14.713Z,29.50
2018-11-06T07:41:24.591Z,29.39
2018-11-06T07:43:34.286Z,29.75
2018-11-06T07:45:43.701Z,29.46
2018-11-06T07:47:53.834Z,29.38
2018-11-06T07:50:03.750Z,29.44
2018-11-06T07:52:13.833Z,29.33
2018-11-06T07:54:23.361Z,29.82
2018-11-06T07:56:33.028Z,30.16
2018-11-06T07:58:43.289Z,29.58
2018-11-06T08:00:53.284Z,30.00
2018-11-06T08:04:13.716Z,30.15
2018-11-06T08:06:23.351Z,30.48
2018-11-06T08:08:32.713Z,29.83
2018-11-06T08:10:42.292Z,29.95
2018-11-06T08:12:56.291Z,29.51
2018-11-06T08:15:06.072Z,29.90
2018-11-06T08:17:15.720Z,29.28
2018-11-06T08:19:25.603Z,29.84
2018-11-06T08:21:35.286Z,29.91
2018-11-06T08:23:45.729Z,29.32
2018-11-06T08:25:55.290Z,29.81
2018-11-06T08:28:05.710Z,29.85
2018-11-06T08:30:15.845Z,29.43
2018-11-06T08:32:25.688Z,30.15
2018-11-06T08:34:34.708Z,29.40
2018-11-06T08:36:44.341Z,29.60
2018-11-06T08:38:54.284Z,29.77
2018-11-06T08:41:03.709Z,29.82
2018-11-06T08:43:13.289Z,29.82
2018-11-06T08:45:22.754Z,30.04
2018-11-06T08:47:32.696Z,29.50
2018-11-06T08:49:42.765Z,29.43
2018-11-06T08:51:52.571Z,30.71
2018-11-06T08:56:19.288Z,30.69
2018-11-06T08:58:28.758Z,30.06
2018-11-06T09:00:38.578Z,30.17
2018-11-06T09:02:49.284Z,29.97
2018-11-06T09:04:58.719Z,30.06
2018-11-06T09:07:08.291Z,29.97
2018-11-06T09:09:17.832Z,30.27
2018-11-06T09:11:27.721Z,30.31
2018-11-06T09:13:37.293Z,29.79
2018-11-06T09:15:47.423Z,29.50
2018-11-06T09:17:56.714Z,30.10
2018-11-06T09:20:06.689Z,30.03
2018-11-06T09:22:16.298Z,29.82
2018-11-06T09:24:26.287Z,29.75
2018-11-06T09:26:36.612Z,29.62
2018-11-06T09:28:46.290Z,29.76
2018-11-06T09:30:56.344Z,29.63
2018-11-06T09:33:05.822Z,29.77
2018-11-06T09:36:19.955Z,30.04
2018-11-06T09:38:29.295Z,30.62
2018-11-06T09:40:38.706Z,30.27
2018-11-06T09:42:47.790Z,29.87
2018-11-06T09:44:57.754Z,30.21
2018-11-06T09:47:07.293Z,29.71
2018-11-06T09:49:17.296Z,29.54
2018-11-06T09:51:26.737Z,29.81
2018-11-06T09:53:36.294Z,29.19
2018-11-06T09:55:46.287Z,29.72
2018-11-06T09:57:56.294Z,29.86
2018-11-06T10:00:06.576Z,29.48
2018-11-06T10:02:16.291Z,29.70
2018-11-06T10:04:25.800Z,29.85
2018-11-06T10:06:35.673Z,30.23
2018-11-06T10:08:45.290Z,30.11
2018-11-06T10:10:55.015Z,29.70
2018-11-06T10:13:04.714Z,29.82
2018-11-06T10:15:17.738Z,30.30
2018-11-06T10:17:27.289Z,30.20
2018-11-06T10:19:36.771Z,30.14
2018-11-06T10:21:47.110Z,30.08
2018-11-06T10:23:56.706Z,30.08
2018-11-06T10:26:07.958Z,30.10
2018-11-06T10:28:17.845Z,29.98
2018-11-06T10:30:27.281Z,30.09
2018-11-06T10:32:36.721Z,29.88
2018-11-06T10:34:46.716Z,29.71
2018-11-06T10:36:56.282Z,29.76
2018-11-06T10:39:06.627Z,29.54
2018-11-06T10:41:17.054Z,29.87
2018-11-06T10:43:26.717Z,29.79
2018-11-06T10:45:36.281Z,30.11
2018-11-06T10:47:45.822Z,30.36
2018-11-06T10:49:55.341Z,29.73
2018-11-06T10:52:04.669Z,30.02
2018-11-06T10:54:14.281Z,30.53
2018-11-06T10:56:24.284Z,30.66
2018-11-06T10:58:34.283Z,30.69
2018-11-06T11:00:48.286Z,31.35
2018-11-06T11:03:01.941Z,31.01
2018-11-06T11:07:13.349Z,30.41
2018-11-06T11:09:22.710Z,29.71
2018-11-06T11:11:32.286Z,29.82
2018-11-06T11:13:42.639Z,29.77
2018-11-06T11:15:52.284Z,29.73
2018-11-06T11:18:01.714Z,29.93
2018-11-06T11:20:14.258Z,30.34
2018-11-06T11:22:23.805Z,28.65
2018-11-06T11:24:33.663Z,28.94
2018-11-06T11:26:43.717Z,28.06
2018-11-06T11:28:53.289Z,27.55
2018-11-06T11:31:02.724Z,28.11
2018-11-06T11:33:12.710Z,27.50
2018-11-06T11:35:22.953Z,27.67
2018-11-06T11:37:32.838Z,27.87
2018-11-06T11:39:42.953Z,28.39
2018-11-06T11:41:52.563Z,29.12
2018-11-06T11:44:02.313Z,28.68
2018-11-06T11:46:12.297Z,29.23
2018-11-06T11:48:21.762Z,29.00
2018-11-06T11:50:31.607Z,29.36
2018-11-06T11:52:41.293Z,29.03
2018-11-06T11:54:51.408Z,29.06
2018-11-06T11:57:00.766Z,29.76
2018-11-06T11:59:10.287Z,29.79
2018-11-06T12:01:19.802Z,29.95
2018-11-06T12:03:29.709Z,29.33
2018-11-06T12:05:39.609Z,29.35
2018-11-06T12:07:49.285Z,30.06
2018-11-06T12:09:58.706Z,29.55
2018-11-06T12:12:08.295Z,30.16
2018-11-06T12:14:18.348Z,29.38
2018-11-06T12:16:28.277Z,29.81
2018-11-06T12:18:38.014Z,29.51
2018-11-06T12:20:47.714Z,29.43
2018-11-06T12:22:57.286Z,28.60
2018-11-06T12:25:07.538Z,27.84
2018-11-06T12:30:03.555Z,27.42
2018-11-06T12:32:12.717Z,27.61
2018-11-06T12:34:21.715Z,26.73
2018-11-06T12:36:30.848Z,27.11
2018-11-06T12:38:40.708Z,26.62
2018-11-06T12:40:50.286Z,26.81
2018-11-06T12:42:59.760Z,26.90
2018-11-06T12:45:10.885Z,26.95
2018-11-06T12:47:19.242Z,26.79
2018-11-06T12:49:28.742Z,26.76
2018-11-06T12:51:37.985Z,26.43
2018-11-06T12:53:47.719Z,26.39
2018-11-06T12:55:57.336Z,26.84
2018-11-06T12:58:06.713Z,26.78
2018-11-06T13:00:21.581Z,26.72
2018-11-06T13:02:30.762Z,26.29
2018-11-06T13:04:40.290Z,26.30
2018-11-06T13:06:49.676Z,26.41
2018-11-06T13:08:59.085Z,26.16
2018-11-06T13:11:08.354Z,26.58
2018-11-06T13:13:18.049Z,26.94
2018-11-06T13:15:27.850Z,27.20
2018-11-06T13:17:35.484Z,26.83
2018-11-06T13:19:44.738Z,27.73
2018-11-06T13:21:54.412Z,27.29
2018-11-06T13:24:03.720Z,27.55
2018-11-06T13:26:13.392Z,27.63
2018-11-06T13:28:22.730Z,27.55
2018-11-06T13:30:32.334Z,27.94
2018-11-06T13:32:42.392Z,27.70
2018-11-06T13:34:51.713Z,26.62
2018-11-06T13:37:01.038Z,26.94
2018-11-06T13:39:13.885Z,26.53
2018-11-06T13:41:21.632Z,27.01
2018-11-06T13:43:30.734Z,27.01
2018-11-06T13:45:39.828Z,27.38
2018-11-06T13:47:49.281Z,26.91
2018-11-06T13:49:58.720Z,27.31
2018-11-06T13:52:07.821Z,27.76
2018-11-06T13:54:17.365Z,27.50
2018-11-06T13:56:26.765Z,28.56
2018-11-06T13:58:36.286Z,28.99
2018-11-06T14:00:46.290Z,28.27
2018-11-06T14:02:56.287Z,28.75
2018-11-06T14:05:06.279Z,29.00
2018-11-06T14:09:36.720Z,29.47
2018-11-06T14:11:46.034Z,28.74
2018-11-06T14:13:55.272Z,28.97
2018-11-06T14:16:04.700Z,29.46
2018-11-06T14:18:14.276Z,30.22
2018-11-06T14:20:23.721Z,27.74
2018-11-06T14:22:33.393Z,28.51
2018-11-06T14:24:42.557Z,31.39
2018-11-06T14:26:51.753Z,30.87
2018-11-06T14:29:01.369Z,27.73
2018-11-06T14:31:10.712Z,27.46
2018-11-06T14:33:19.702Z,27.67
2018-11-06T14:35:29.954Z,28.12
2018-11-06T14:37:39.274Z,28.31
2018-11-06T14:39:48.666Z,28.82
2018-11-06T14:42:20.292Z,28.48
2018-11-06T14:44:29.619Z,28.75
2018-11-06T14:46:38.695Z,28.53
2018-11-06T14:48:48.482Z,28.94
2018-11-06T14:50:57.708Z,28.99
2018-11-06T14:53:07.278Z,29.78
2018-11-06T14:55:17.590Z,29.17
2018-11-06T14:57:26.712Z,29.52
2018-11-06T14:59:35.717Z,29.55
2018-11-06T15:01:45.351Z,29.35
2018-11-06T15:03:54.279Z,28.11
2018-11-06T15:06:03.696Z,28.36
2018-11-06T15:08:13.267Z,29.48
2018-11-06T15:10:22.694Z,29.60
2018-11-06T15:12:32.065Z,27.63
2018-11-06T15:14:41.399Z,27.59
2018-11-06T15:16:50.725Z,28.18
2018-11-06T15:18:59.702Z,28.59
2018-11-06T15:21:09.784Z,28.68
2018-11-06T15:23:19.275Z,28.40
2018-11-06T15:25:28.719Z,28.71
2018-11-06T15:27:38.341Z,28.51
2018-11-06T15:29:47.713Z,28.78
2018-11-06T15:31:56.803Z,29.11
2018-11-06T15:34:06.278Z,28.51
2018-11-06T15:36:15.693Z,28.48
2018-11-06T15:38:25.284Z,29.07
2018-11-06T15:40:34.711Z,29.16
2018-11-06T15:42:43.705Z,29.23
2018-11-06T15:44:53.281Z,29.21
2018-11-06T15:47:03.376Z,28.99
2018-11-06T15:49:12.359Z,29.30
2018-11-06T15:51:21.668Z,28.68
2018-11-06T15:53:30.710Z,28.88
2018-11-06T15:55:39.726Z,28.85
2018-11-06T15:57:48.702Z,27.83
2018-11-06T16:01:47.290Z,27.64
2018-11-06T16:03:56.825Z,26.79
2018-11-06T16:06:06.285Z,26.45
2018-11-06T16:08:16.470Z,27.06
2018-11-06T16:10:26.055Z,27.56
2018-11-06T16:12:35.278Z,27.21
2018-11-06T16:14:44.678Z,27.28
2018-11-06T16:16:53.809Z,27.59
2018-11-06T16:19:03.273Z,28.54
2018-11-06T16:21:12.277Z,28.48
2018-11-06T16:23:21.673Z,28.67
2018-11-06T16:25:30.693Z,28.65
2018-11-06T16:27:39.752Z,28.56
2018-11-06T16:29:48.837Z,29.10
2018-11-06T16:31:58.517Z,29.12
2018-11-06T16:34:08.280Z,28.78
2018-11-06T16:36:17.686Z,28.94
2018-11-06T16:38:27.510Z,28.75
2018-11-06T16:40:36.706Z,28.95
2018-11-06T16:42:46.606Z,29.09
2018-11-06T16:44:56.293Z,29.20
2018-11-06T16:47:05.696Z,29.30
2018-11-06T16:49:15.280Z,29.49
2018-11-06T16:51:24.690Z,29.17
2018-11-06T16:53:33.705Z,28.41
2018-11-06T16:55:43.282Z,28.22
2018-11-06T16:57:52.701Z,28.22
2018-11-06T17:00:02.380Z,27.43
2018-11-06T17:02:11.002Z,27.49
2018-11-06T17:04:21.023Z,27.50
2018-11-06T17:06:34.697Z,27.37
2018-11-06T17:08:44.275Z,26.44
2018-11-06T17:10:53.708Z,27.26
2018-11-06T17:13:03.274Z,26.67
2018-11-06T17:15:17.090Z,26.14
2018-11-06T17:17:26.473Z,26.62
2018-11-06T17:19:36.401Z,26.81
2018-11-06T17:21:45.705Z,27.23
2018-11-06T17:23:55.280Z,27.21
2018-11-06T17:26:04.709Z,28.16
2018-11-06T17:28:14.272Z,28.08
2018-11-06T17:30:23.276Z,27.90
2018-11-06T17:32:32.741Z,27.92
2018-11-06T17:34:42.281Z,28.25
2018-11-06T17:36:51.825Z,28.10
2018-11-06T17:39:00.822Z,27.98
2018-11-06T17:41:10.276Z,28.77
2018-11-06T17:43:19.683Z,28.73
2018-11-06T17:45:28.773Z,28.54
2018-11-06T17:47:39.030Z,28.72
2018-11-06T17:49:48.395Z,28.39
2018-11-06T17:51:57.702Z,29.06
2018-11-06T17:54:06.765Z,28.54
2018-11-06T17:56:16.275Z,28.43
2018-11-06T17:58:25.712Z,28.45
2018-11-06T18:00:35.278Z,29.13
2018-11-06T18:02:46.384Z,28.74
2018-11-06T18:04:56.322Z,28.53
2018-11-06T18:07:06.276Z,29.16
2018-11-06T18:09:15.794Z,28.47
2018-11-06T18:11:25.286Z,28.86
2018-11-06T18:13:34.835Z,28.16
2018-11-06T18:15:44.282Z,28.12
2018-11-06T18:17:53.459Z,28.34
2018-11-06T18:20:02.687Z,27.67
2018-11-06T18:22:12.271Z,26.80
2018-11-06T18:24:21.405Z,26.65
2018-11-06T18:26:30.698Z,26.61
2018-11-06T18:28:39.698Z,26.85
2018-11-06T18:30:48.788Z,27.96
2018-11-06T18:32:57.715Z,27.38
2018-11-06T18:35:07.295Z,28.61
2018-11-06T18:37:16.733Z,28.63
2018-11-06T18:39:25.730Z,28.29
2018-11-06T18:41:35.625Z,28.74
2018-11-06T18:43:44.707Z,28.47
2018-11-06T18:45:54.281Z,28.54
2018-11-06T18:48:03.702Z,28.17
2018-11-06T18:50:15.278Z,28.56
2018-11-06T18:52:24.707Z,28.84
2018-11-06T18:54:34.281Z,28.37
2018-11-06T18:56:43.701Z,28.42
2018-11-06T18:58:53.278Z,28.26
2018-11-06T19:01:02.658Z,28.60
2018-11-06T19:03:12.278Z,28.73
2018-11-06T19:05:22.522Z,28.64
2018-11-06T19:07:32.278Z,28.93
2018-11-06T19:09:41.675Z,29.59
2018-11-06T19:11:51.274Z,28.86
2018-11-06T19:14:00.697Z,28.18
2018-11-06T19:16:09.796Z,28.53
2018-11-06T19:18:19.273Z,27.69
2018-11-06T19:20:28.697Z,27.04
2018-11-06T19:22:38.504Z,26.96
2018-11-06T19:24:47.710Z,26.41
2018-11-06T19:26:57.538Z,27.26
2018-11-06T19:29:06.709Z,27.71
2018-11-06T19:31:16.555Z,27.20
2018-11-06T19:33:25.709Z,27.38
2018-11-06T19:35:35.038Z,27.60
2018-11-06T19:37:44.568Z,27.91
2018-11-06T19:39:53.698Z,27.49
2018-11-06T19:42:03.324Z,28.14
2018-11-06T19:44:13.271Z,28.23
2018-11-06T19:46:23.277Z,27.85
2018-11-06T19:48:33.650Z,28.78
2018-11-06T19:50:43.279Z,27.93
2018-11-06T19:52:52.357Z,27.74
2018-11-06T19:55:01.679Z,28.54
2018-11-06T19:57:11.280Z,27.76
2018-11-06T19:59:20.749Z,28.34
2018-11-06T20:01:30.282Z,28.31
2018-11-06T20:03:40.760Z,28.47
2018-11-06T20:05:50.381Z,28.56
2018-11-06T20:08:00.402Z,28.25
2018-11-06T20:10:11.292Z,28.69
2018-11-06T20:12:20.773Z,28.05
2018-11-06T20:14:30.637Z,27.15
2018-11-06T20:16:40.620Z,27.41
2018-11-06T20:18:49.766Z,26.19
2018-11-06T20:20:58.712Z,26.43
2018-11-06T20:23:08.289Z,26.78
2018-11-06T20:25:17.718Z,25.97
2018-11-06T20:27:27.399Z,26.76
2018-11-06T20:29:36.746Z,26.54
2018-11-06T20:31:45.880Z,27.02
2018-11-06T20:33:53.732Z,27.92
2018-11-06T20:36:02.802Z,27.68
2018-11-06T20:38:12.290Z,27.47
2018-11-06T20:40:24.040Z,27.43
2018-11-06T20:42:33.349Z,27.94
2018-11-06T20:44:42.728Z,27.66
2018-11-06T20:46:52.918Z,28.13
2018-11-06T20:49:02.967Z,28.06
2018-11-06T20:51:12.365Z,27.79
2018-11-06T20:53:21.753Z,28.19
2018-11-06T20:55:31.339Z,28.57
2018-11-06T20:57:41.288Z,28.50
2018-11-06T21:02:18.292Z,28.48
2018-11-06T21:04:28.382Z,28.12
2018-11-06T21:06:38.754Z,28.34
2018-11-06T21:08:48.371Z,28.81
2018-11-06T21:10:57.753Z,28.34
2018-11-06T21:13:07.679Z,28.32
2018-11-06T21:15:17.378Z,29.12
2018-11-06T21:17:26.716Z,28.35
2018-11-06T21:19:35.816Z,28.01
2018-11-06T21:21:45.659Z,29.18
2018-11-06T21:23:54.753Z,29.17
2018-11-06T21:26:04.240Z,27.95
2018-11-06T21:28:13.282Z,27.04
2018-11-06T21:32:42.841Z,26.80
2018-11-06T21:34:52.290Z,26.22
2018-11-06T21:37:01.730Z,26.50
2018-11-06T21:39:13.352Z,26.71
2018-11-06T21:41:22.704Z,26.08
2018-11-06T21:43:32.285Z,27.00
2018-11-06T21:45:42.292Z,27.35
2018-11-06T21:47:52.287Z,27.73
2018-11-06T21:50:01.559Z,28.04
2018-11-06T21:52:11.382Z,27.37
2018-11-06T21:54:20.740Z,27.92
2018-11-06T21:56:30.285Z,28.43
2018-11-06T21:58:39.676Z,28.33
2018-11-06T22:00:48.863Z,28.91
2018-11-06T22:02:57.753Z,28.56
2018-11-06T22:05:08.288Z,28.67
2018-11-06T22:07:17.763Z,28.12
2018-11-06T22:09:27.285Z,28.98
2018-11-06T22:11:36.294Z,28.12
2018-11-06T22:13:45.708Z,28.76
2018-11-06T22:15:54.710Z,28.50
2018-11-06T22:18:04.286Z,28.10
2018-11-06T22:20:19.287Z,28.19
2018-11-06T22:22:28.711Z,28.36
2018-11-06T22:24:38.301Z,28.71
2018-11-06T22:26:47.312Z,28.93
2018-11-06T22:28:56.741Z,28.45
2018-11-06T22:31:06.313Z,28.90
2018-11-06T22:33:15.702Z,28.68
2018-11-06T22:35:24.817Z,28.76
2018-11-06T22:37:34.358Z,28.97
2018-11-06T22:39:43.735Z,28.18
2018-11-06T22:41:53.790Z,28.34
2018-11-06T22:44:03.306Z,28.74
2018-11-06T22:46:12.306Z,28.68
2018-11-06T22:48:21.663Z,28.86
2018-11-06T22:50:30.902Z,28.42
2018-11-06T22:52:38.609Z,28.22
2018-11-06T22:54:47.750Z,28.00
2018-11-06T22:56:57.296Z,28.75
2018-11-06T22:59:06.749Z,27.87
2018-11-06T23:01:19.965Z,28.54
2018-11-06T23:03:29.731Z,28.14
2018-11-06T23:05:39.943Z,28.44
2018-11-06T23:07:54.460Z,28.38
2018-11-06T23:10:03.862Z,28.79
2018-11-06T23:12:13.300Z,28.67
2018-11-06T23:14:22.743Z,28.74
2018-11-06T23:16:31.726Z,27.97
2018-11-06T23:18:41.070Z,29.25
2018-11-06T23:20:50.293Z,28.83
2018-11-06T23:22:59.726Z,28.11
2018-11-06T23:25:09.367Z,28.08
2018-11-06T23:27:18.729Z,27.41
2018-11-06T23:29:27.775Z,27.36
2018-11-06T23:31:36.858Z,27.07
2018-11-06T23:33:45.258Z,26.28
2018-11-06T23:35:54.811Z,26.56
2018-11-06T23:38:04.299Z,26.48
2018-11-06T23:40:13.459Z,26.59
2018-11-06T23:42:23.303Z,26.91
2018-11-06T23:44:32.750Z,26.43
2018-11-06T23:46:42.362Z,26.29
2018-11-06T23:48:51.729Z,27.65
2018-11-06T23:51:00.730Z,27.91
2018-11-06T23:53:10.346Z,27.78
2018-11-06T23:55:19.735Z,27.57
2018-11-06T23:57:30.292Z,28.33
2018-11-06T23:59:40.369Z,28.61
